Time,TemperatureF,DewpointF,PressureIn,WindDirection,WindDirectionDegrees,WindSpeedMPH,WindSpeedGustMPH,Humidity,HourlyPrecipIn,Conditions,Clouds,dailyrainin,SolarRadiationWatts/m^2,SoftwareType,DateUTC
2013-11-20 00:00:00,23.3,16.0,30.42,West,259,4.0,5.0,73,0.00,,,0.00,0,weatherlink.com 1.10,2013-11-20 05:00:00,
2013-11-20 00:15:00,23.0,16.0,30.43,WNW,283,3.0,5.0,74,0.00,,,0.00,0,weatherlink.com 1.10,2013-11-20 05:15:00,
2013-11-20 00:30:00,22.8,16.0,30.44,West,269,2.0,4.0,74,0.00,,,0.00,0,weatherlink.com 1.10,2013-11-20 05:30:00,
2013-11-20 00:46:00,22.5,16.0,30.44,NNW,327,2.0,5.0,76,0.00,,,0.00,0,weatherlink.com 1.10,2013-11-20 05:46:00,
2013-11-20 01:01:00,22.2,16.0,30.45,NW,325,2.0,4.0,76,0.00,,,0.00,0,weatherlink.com 1.10,2013-11-20 06:01:00,
2013-11-20 01:16:00,22.4,16.0,30.45,West,280,2.0,4.0,77,0.00,,,0.00,0,weatherlink.com 1.10,2013-11-20 06:16:00,
2013-11-20 01:31:00,21.8,16.0,30.46,WSW,249,0.0,3.0,77,0.00,,,0.00,0,weatherlink.com 1.10,2013-11-20 06:31:00,
2013-11-20 01:46:00,21.2,16.0,30.46,WSW,242,1.0,4.0,79,0.00,,,0.00,0,weatherlink.com 1.10,2013-11-20 06:46:00,
2013-11-20 02:01:00,20.6,16.0,30.47,WSW,243,3.0,3.0,81,0.00,,,0.00,0,weatherlink.com 1.10,2013-11-20 07:01:00,
2013-11-20 02:16:00,19.6,15.0,30.47,South,178,0.0,2.0,82,0.00,,,0.00,0,weatherlink.com 1.10,2013-11-20 07:16:00,
2013-11-20 02:31:00,18.8,15.0,30.48,SSW,201,0.0,2.0,84,0.00,,,0.00,0,weatherlink.com 1.10,2013-11-20 07:31:00,
2013-11-20 02:46:00,20.1,16.0,30.48,SSW,210,1.0,3.0,83,0.00,,,0.00,0,weatherlink.com 1.10,2013-11-20 07:46:00,
2013-11-20 03:01:00,19.3,15.0,30.49,SSW,212,1.0,3.0,84,0.00,,,0.00,0,weatherlink.com 1.10,2013-11-20 08:01:00,
2013-11-20 03:16:00,18.9,15.0,30.50,SSW,204,2.0,2.0,85,0.00,,,0.00,0,weatherlink.com 1.10,2013-11-20 08:16:00,
2013-11-20 03:31:00,18.6,15.0,30.50,SSW,194,1.0,2.0,86,0.00,,,0.00,0,weatherlink.com 1.10,2013-11-20 08:31:00,
2013-11-20 03:46:00,18.5,15.0,30.51,South,173,2.0,2.0,86,0.00,,,0.00,0,weatherlink.com 1.10,2013-11-20 08:46:00,
2013-11-20 04:01:00,18.6,15.0,30.52,SSW,200,1.0,2.0,87,0.00,,,0.00,0,weatherlink.com 1.10,2013-11-20 09:01:00,
2013-11-20 04:16:00,19.0,16.0,30.52,West,279,1.0,1.0,86,0.00,,,0.00,0,weatherlink.com 1.10,2013-11-20 09:16:00,
2013-11-20 04:31:00,18.6,15.0,30.52,SSW,194,1.0,2.0,86,0.00,,,0.00,0,weatherlink.com 1.10,2013-11-20 09:31:00,
2013-11-20 04:46:00,17.5,14.0,30.53,SSW,198,1.0,3.0,86,0.00,,,0.00,0,weatherlink.com 1.10,2013-11-20 09:46:00,
2013-11-20 05:01:00,17.2,14.0,30.53,SSW,195,0.0,2.0,87,0.00,,,0.00,0,weatherlink.com 1.10,2013-11-20 10:01:00,
2013-11-20 05:16:00,17.6,14.0,30.54,South,171,1.0,2.0,87,0.00,,,0.00,0,weatherlink.com 1.10,2013-11-20 10:16:00,
2013-11-20 05:31:00,17.4,14.0,30.54,South,181,0.0,2.0,87,0.00,,,0.00,0,weatherlink.com 1.10,2013-11-20 10:31:00,
2013-11-20 05:46:00,16.9,14.0,30.55,SSW,200,1.0,2.0,87,0.00,,,0.00,0,weatherlink.com 1.10,2013-11-20 10:46:00,
2013-11-20 06:01:00,16.6,14.0,30.55,South,174,2.0,2.0,88,0.00,,,0.00,0,weatherlink.com 1.10,2013-11-20 11:01:00,
2013-11-20 06:16:00,16.2,13.0,30.56,SSW,200,1.0,1.0,88,0.00,,,0.00,0,weatherlink.com 1.10,2013-11-20 11:16:00,
2013-11-20 06:31:00,16.7,14.0,30.57,South,175,1.0,3.0,88,0.00,,,0.00,0,weatherlink.com 1.10,2013-11-20 11:31:00,
2013-11-20 06:46:00,16.7,14.0,30.57,South,169,1.0,2.0,88,0.00,,,0.00,0,weatherlink.com 1.10,2013-11-20 11:46:00,
2013-11-20 07:01:00,16.9,14.0,30.57,SSE,160,2.0,3.0,87,0.00,,,0.00,0,weatherlink.com 1.10,2013-11-20 12:01:00,
2013-11-20 07:16:00,16.9,14.0,30.58,SSE,159,1.0,3.0,87,0.00,,,0.00,9,weatherlink.com 1.10,2013-11-20 12:16:00,
2013-11-20 07:31:00,17.3,14.0,30.58,SSE,166,0.0,3.0,87,0.00,,,0.00,14,weatherlink.com 1.10,2013-11-20 12:31:00,
2013-11-20 07:47:00,18.6,16.0,30.58,South,173,2.0,4.0,88,0.00,,,0.00,37,weatherlink.com 1.10,2013-11-20 12:47:00,
2013-11-20 08:02:00,20.0,17.0,30.59,South,183,0.0,4.0,86,0.00,,,0.00,69,weatherlink.com 1.10,2013-11-20 13:02:00,
2013-11-20 08:17:00,21.2,17.0,30.60,SE,129,1.0,3.0,85,0.00,,,0.00,111,weatherlink.com 1.10,2013-11-20 13:17:00,
2013-11-20 08:32:00,22.5,18.0,30.60,SE,139,0.0,3.0,83,0.00,,,0.00,151,weatherlink.com 1.10,2013-11-20 13:32:00,
2013-11-20 08:47:00,23.9,19.0,30.61,SW,221,1.0,3.0,81,0.00,,,0.00,200,weatherlink.com 1.10,2013-11-20 13:47:00,
2013-11-20 09:02:00,24.1,19.0,30.61,WSW,254,0.0,3.0,80,0.00,,,0.00,232,weatherlink.com 1.10,2013-11-20 14:02:00,
2013-11-20 09:17:00,25.7,20.0,30.62,SSE,149,3.0,3.0,78,0.00,,,0.00,230,weatherlink.com 1.10,2013-11-20 14:17:00,
2013-11-20 09:32:00,26.7,21.0,30.62,SW,219,1.0,3.0,78,0.00,,,0.00,246,weatherlink.com 1.10,2013-11-20 14:32:00,
2013-11-20 09:47:00,26.8,20.0,30.62,North,9,1.0,5.0,74,0.00,,,0.00,257,weatherlink.com 1.10,2013-11-20 14:47:00,
2013-11-20 10:02:00,27.5,20.0,30.63,NNE,14,3.0,4.0,74,0.00,,,0.00,301,weatherlink.com 1.10,2013-11-20 15:02:00,
2013-11-20 10:17:00,27.3,19.0,30.63,NNW,348,0.0,4.0,72,0.00,,,0.00,332,weatherlink.com 1.10,2013-11-20 15:17:00,
2013-11-20 10:32:00,28.7,20.0,30.62,North,5,3.0,4.0,71,0.00,,,0.00,367,weatherlink.com 1.10,2013-11-20 15:32:00,
2013-11-20 10:47:00,30.1,20.0,30.62,SE,136,1.0,4.0,66,0.00,,,0.00,413,weatherlink.com 1.10,2013-11-20 15:47:00,
2013-11-20 11:02:00,30.2,19.0,30.61,NNW,340,1.0,5.0,64,0.00,,,0.00,410,weatherlink.com 1.10,2013-11-20 16:02:00,
2013-11-20 11:17:00,31.5,20.0,30.61,SSE,154,2.0,4.0,63,0.00,,,0.00,388,weatherlink.com 1.10,2013-11-20 16:17:00,
2013-11-20 11:32:00,31.7,19.0,30.60,SE,132,1.0,3.0,60,0.00,,,0.00,385,weatherlink.com 1.10,2013-11-20 16:32:00,
2013-11-20 11:47:00,32.1,19.0,30.60,WNW,287,2.0,4.0,59,0.00,,,0.00,380,weatherlink.com 1.10,2013-11-20 16:47:00,
2013-11-20 12:02:00,31.6,19.0,30.60,SE,128,2.0,5.0,59,0.00,,,0.00,376,weatherlink.com 1.10,2013-11-20 17:02:00,
2013-11-20 12:17:00,33.0,20.0,30.59,South,177,1.0,3.0,58,0.00,,,0.00,374,weatherlink.com 1.10,2013-11-20 17:17:00,
2013-11-20 12:32:00,32.8,19.0,30.59,North,355,2.0,5.0,58,0.00,,,0.00,360,weatherlink.com 1.10,2013-11-20 17:32:00,
2013-11-20 12:47:00,33.2,19.0,30.59,NNW,339,3.0,4.0,57,0.00,,,0.00,355,weatherlink.com 1.10,2013-11-20 17:47:00,
2013-11-20 13:02:00,33.1,19.0,30.59,NNW,333,1.0,5.0,56,0.00,,,0.00,330,weatherlink.com 1.10,2013-11-20 18:02:00,
2013-11-20 13:17:00,33.3,19.0,30.59,NNE,13,1.0,4.0,56,0.00,,,0.00,320,weatherlink.com 1.10,2013-11-20 18:17:00,
2013-11-20 13:32:00,34.1,19.0,30.58,NNE,33,2.0,4.0,55,0.00,,,0.00,304,weatherlink.com 1.10,2013-11-20 18:32:00,
2013-11-20 13:47:00,33.8,19.0,30.58,North,9,1.0,8.0,54,0.00,,,0.00,283,weatherlink.com 1.10,2013-11-20 18:47:00,
2013-11-20 14:02:00,34.4,20.0,30.57,SE,140,1.0,5.0,55,0.00,,,0.00,257,weatherlink.com 1.10,2013-11-20 19:02:00,
2013-11-20 14:18:00,34.5,19.0,30.57,ENE,76,1.0,4.0,53,0.00,,,0.00,239,weatherlink.com 1.10,2013-11-20 19:18:00,
2013-11-20 14:33:00,34.4,19.0,30.57,ESE,113,2.0,6.0,53,0.00,,,0.00,207,weatherlink.com 1.10,2013-11-20 19:33:00,
2013-11-20 14:48:00,35.6,19.0,30.57,North,5,2.0,4.0,52,0.00,,,0.00,179,weatherlink.com 1.10,2013-11-20 19:48:00,
2013-11-20 15:03:00,35.0,19.0,30.57,NW,325,2.0,4.0,53,0.00,,,0.00,146,weatherlink.com 1.10,2013-11-20 20:03:00,
2013-11-20 15:18:00,34.9,19.0,30.57,North,9,1.0,5.0,52,0.00,,,0.00,98,weatherlink.com 1.10,2013-11-20 20:18:00,
2013-11-20 15:33:00,34.4,18.0,30.57,NNE,13,1.0,4.0,52,0.00,,,0.00,67,weatherlink.com 1.10,2013-11-20 20:33:00,
2013-11-20 15:48:00,34.4,19.0,30.57,NW,318,3.0,4.0,53,0.00,,,0.00,30,weatherlink.com 1.10,2013-11-20 20:48:00,
2013-11-20 16:03:00,34.5,19.0,30.57,NNW,329,1.0,4.0,53,0.00,,,0.00,12,weatherlink.com 1.10,2013-11-20 21:03:00,
2013-11-20 16:33:00,33.3,19.0,30.58,NNW,344,2.0,3.0,55,0.00,,,0.00,0,weatherlink.com 1.10,2013-11-20 21:33:00,
2013-11-20 16:48:00,32.9,19.0,30.58,North,350,1.0,4.0,56,0.00,,,0.00,0,weatherlink.com 1.10,2013-11-20 21:48:00,
2013-11-20 17:03:00,31.9,18.0,30.58,North,360,2.0,4.0,58,0.00,,,0.00,0,weatherlink.com 1.10,2013-11-20 22:03:00,
2013-11-20 17:18:00,31.1,19.0,30.58,NNW,347,1.0,4.0,60,0.00,,,0.00,0,weatherlink.com 1.10,2013-11-20 22:18:00,
2013-11-20 17:33:00,30.8,19.0,30.59,NNE,17,1.0,3.0,61,0.00,,,0.00,0,weatherlink.com 1.10,2013-11-20 22:33:00,
2013-11-20 17:48:00,30.6,19.0,30.59,NNE,22,1.0,2.0,62,0.00,,,0.00,0,weatherlink.com 1.10,2013-11-20 22:48:00,
2013-11-20 18:03:00,30.5,20.0,30.59,NE,40,2.0,3.0,64,0.00,,,0.00,0,weatherlink.com 1.10,2013-11-20 23:03:00,
2013-11-20 18:18:00,30.3,20.0,30.59,NE,42,1.0,3.0,65,0.00,,,0.00,0,weatherlink.com 1.10,2013-11-20 23:18:00,
2013-11-20 18:33:00,29.7,20.0,30.59,NE,54,2.0,3.0,67,0.00,,,0.00,0,weatherlink.com 1.10,2013-11-20 23:33:00,
2013-11-20 18:48:00,29.1,19.0,30.59,NNE,17,2.0,3.0,67,0.00,,,0.00,0,weatherlink.com 1.10,2013-11-20 23:48:00,
2013-11-20 19:03:00,28.6,19.0,30.59,NNE,31,2.0,3.0,67,0.00,,,0.00,0,weatherlink.com 1.10,2013-11-21 00:03:00,
2013-11-20 19:18:00,28.4,19.0,30.60,NE,53,4.0,4.0,67,0.00,,,0.00,0,weatherlink.com 1.10,2013-11-21 00:18:00,
2013-11-20 19:33:00,28.1,19.0,30.60,NNE,12,0.0,4.0,68,0.00,,,0.00,0,weatherlink.com 1.10,2013-11-21 00:33:00,
2013-11-20 19:48:00,27.9,19.0,30.60,East,86,2.0,5.0,69,0.00,,,0.00,0,weatherlink.com 1.10,2013-11-21 00:48:00,
2013-11-20 20:03:00,27.7,19.0,30.60,ENE,73,3.0,5.0,70,0.00,,,0.00,0,weatherlink.com 1.10,2013-11-21 01:03:00,
2013-11-20 20:18:00,27.7,19.0,30.60,East,94,1.0,6.0,70,0.00,,,0.00,0,weatherlink.com 1.10,2013-11-21 01:18:00,
2013-11-20 20:33:00,27.5,19.0,30.60,SE,138,0.0,6.0,70,0.00,,,0.00,0,weatherlink.com 1.10,2013-11-21 01:33:00,
2013-11-20 20:48:00,27.2,19.0,30.59,ENE,77,3.0,6.0,71,0.00,,,0.00,0,weatherlink.com 1.10,2013-11-21 01:48:00,
2013-11-20 21:03:00,26.8,19.0,30.59,ESE,107,0.0,3.0,72,0.00,,,0.00,0,weatherlink.com 1.10,2013-11-21 02:03:00,
2013-11-20 21:18:00,26.6,19.0,30.59,NE,47,2.0,4.0,73,0.00,,,0.00,0,weatherlink.com 1.10,2013-11-21 02:18:00,
2013-11-20 21:33:00,26.3,19.0,30.59,NE,44,3.0,3.0,74,0.00,,,0.00,0,weatherlink.com 1.10,2013-11-21 02:33:00,
2013-11-20 21:48:00,26.0,19.0,30.58,NNE,16,0.0,3.0,74,0.00,,,0.00,0,weatherlink.com 1.10,2013-11-21 02:48:00,
2013-11-20 22:03:00,25.8,19.0,30.57,NE,36,2.0,3.0,75,0.00,,,0.00,0,weatherlink.com 1.10,2013-11-21 03:03:00,
2013-11-20 22:18:00,25.8,19.0,30.57,NNE,33,2.0,3.0,75,0.00,,,0.00,0,weatherlink.com 1.10,2013-11-21 03:18:00,
2013-11-20 22:33:00,25.6,19.0,30.57,NE,34,1.0,2.0,76,0.00,,,0.00,0,weatherlink.com 1.10,2013-11-21 03:33:00,
2013-11-20 22:48:00,25.5,19.0,30.57,ENE,61,3.0,4.0,77,0.00,,,0.00,0,weatherlink.com 1.10,2013-11-21 03:48:00,
2013-11-20 23:03:00,25.3,19.0,30.57,NNW,340,0.0,3.0,78,0.00,,,0.00,0,weatherlink.com 1.10,2013-11-21 04:03:00,
2013-11-20 23:18:00,24.9,20.0,30.57,SSE,152,1.0,3.0,80,0.00,,,0.00,0,weatherlink.com 1.10,2013-11-21 04:18:00,
2013-11-20 23:33:00,24.2,19.0,30.56,SE,144,1.0,3.0,80,0.00,,,0.00,0,weatherlink.com 1.10,2013-11-21 04:33:00,
2013-11-20 23:48:00,25.8,19.0,30.56,SE,146,2.0,6.0,75,0.00,,,0.00,0,weatherlink.com 1.10,2013-11-21 04:48:00,